createdAt,value
2019-01-09T00:00:07.745Z,1009.17753521
2019-01-09T00:00:20.135Z,1009.17753521
2019-01-09T00:00:32.501Z,1009.17753521
2019-01-09T00:00:44.859Z,1009.17753521
2019-01-09T00:00:57.365Z,1009.17753521
2019-01-09T00:01:09.726Z,1009.07594356
2019-01-09T00:01:22.112Z,1009.07594356
2019-01-09T00:01:34.482Z,1009.07594356
2019-01-09T00:01:46.861Z,1009.07594356
2019-01-09T00:01:59.325Z,1009.07594356
2019-01-09T00:02:11.684Z,1009.14367133
2019-01-09T00:02:24.031Z,1009.14367133
2019-01-09T00:02:36.402Z,1009.14367133
2019-01-09T00:02:48.920Z,1009.14367133
2019-01-09T00:03:01.396Z,1009.10980745
2019-01-09T00:03:13.984Z,1009.10980745
2019-01-09T00:03:26.335Z,1009.10980745
2019-01-09T00:03:38.684Z,1009.10980745
2019-01-09T00:03:51.128Z,1009.10980745
2019-01-09T00:04:03.635Z,1009.04207968
2019-01-09T00:04:15.970Z,1009.04207968
2019-01-09T00:04:28.484Z,1009.04207968
2019-01-09T00:04:40.832Z,1009.04207968
2019-01-09T00:04:53.279Z,1009.04207968
2019-01-09T00:05:05.633Z,1009.07594356
2019-01-09T00:05:18.116Z,1009.07594356
2019-01-09T00:05:38.540Z,1009.07594356
2019-01-09T00:05:50.889Z,1009.07594356
2019-01-09T00:06:03.457Z,1009.10980745
2019-01-09T00:06:15.829Z,1009.10980745
2019-01-09T00:06:28.276Z,1009.10980745
2019-01-09T00:06:40.632Z,1009.10980745
2019-01-09T00:06:53.000Z,1009.10980745
2019-01-09T00:07:05.465Z,1009.14367133
2019-01-09T00:07:17.822Z,1009.14367133
2019-01-09T00:07:30.277Z,1009.14367133
2019-01-09T00:07:42.678Z,1009.14367133
2019-01-09T00:07:55.046Z,1009.14367133
2019-01-09T00:08:07.466Z,1009.07594356
2019-01-09T00:08:19.817Z,1009.07594356
2019-01-09T00:08:33.908Z,1009.07594356
2019-01-09T00:08:46.266Z,1009.07594356
2019-01-09T00:08:58.708Z,1009.07594356
2019-01-09T00:09:11.238Z,1009.17753521
2019-01-09T00:09:23.609Z,1009.17753521
2019-01-09T00:09:35.977Z,1009.17753521
2019-01-09T00:09:48.346Z,1009.17753521
2019-01-09T00:10:00.731Z,1009.17753521
2019-01-09T00:10:13.080Z,1009.10980745
2019-01-09T00:10:25.602Z,1009.10980745
2019-01-09T00:10:38.115Z,1009.10980745
2019-01-09T00:10:50.590Z,1009.10980745
2019-01-09T00:11:02.951Z,1009.0082158
2019-01-09T00:11:15.339Z,1009.0082158
2019-01-09T00:11:27.695Z,1009.0082158
2019-01-09T00:11:40.287Z,1009.0082158
2019-01-09T00:11:52.747Z,1009.0082158
2019-01-09T00:12:05.102Z,1009.04207968
2019-01-09T00:12:17.471Z,1009.04207968
2019-01-09T00:12:29.816Z,1009.04207968
2019-01-09T00:12:42.395Z,1009.04207968
2019-01-09T00:12:54.732Z,1009.04207968
2019-01-09T00:13:07.127Z,1009.04207968
2019-01-09T00:13:19.487Z,1009.04207968
2019-01-09T00:13:31.883Z,1009.04207968
2019-01-09T00:13:44.327Z,1009.04207968
2019-01-09T00:13:56.691Z,1009.04207968
2019-01-09T00:14:09.074Z,1009.07594356
2019-01-09T00:14:21.432Z,1009.07594356
2019-01-09T00:14:33.778Z,1009.07594356
2019-01-09T00:14:46.202Z,1009.07594356
2019-01-09T00:14:58.564Z,1009.07594356
2019-01-09T00:15:12.383Z,1009.07594356
2019-01-09T00:15:24.736Z,1009.07594356
2019-01-09T00:15:37.105Z,1009.07594356
2019-01-09T00:15:49.469Z,1009.07594356
2019-01-09T00:16:01.840Z,1009.14367133
2019-01-09T00:16:14.187Z,1009.14367133
2019-01-09T00:16:26.562Z,1009.14367133
2019-01-09T00:16:38.899Z,1009.14367133
2019-01-09T00:16:51.243Z,1009.14367133
2019-01-09T00:17:03.598Z,1009.10980745
2019-01-09T00:17:16.208Z,1009.10980745
2019-01-09T00:17:28.573Z,1009.10980745
2019-01-09T00:17:40.923Z,1009.10980745
2019-01-09T00:17:53.379Z,1009.10980745
2019-01-09T00:18:05.728Z,1009.14367133
2019-01-09T00:18:18.080Z,1009.14367133
2019-01-09T00:18:30.430Z,1009.14367133
2019-01-09T00:18:43.075Z,1009.14367133
2019-01-09T00:18:55.430Z,1009.14367133
2019-01-09T00:19:07.808Z,1009.10980745
2019-01-09T00:19:20.164Z,1009.10980745
2019-01-09T00:19:32.555Z,1009.10980745
2019-01-09T00:19:44.906Z,1009.10980745
2019-01-09T00:19:57.282Z,1009.10980745
2019-01-09T00:20:09.658Z,1009.10980745
2019-01-09T00:20:22.110Z,1009.10980745
2019-01-09T00:20:34.448Z,1009.10980745
2019-01-09T00:20:46.804Z,1009.10980745
2019-01-09T00:20:59.158Z,1009.10980745
2019-01-09T00:21:11.517Z,1009.14367133
2019-01-09T00:21:23.878Z,1009.14367133
2019-01-09T00:21:36.250Z,1009.14367133
2019-01-09T00:21:48.607Z,1009.14367133
2019-01-09T00:22:00.963Z,1009.14367133
2019-01-09T00:22:13.396Z,1009.10980745
2019-01-09T00:22:25.749Z,1009.10980745
2019-01-09T00:22:38.113Z,1009.10980745
2019-01-09T00:22:50.458Z,1009.10980745
2019-01-09T00:23:02.852Z,1009.10980745
2019-01-09T00:23:15.206Z,1009.10980745
2019-01-09T00:23:27.563Z,1009.10980745
2019-01-09T00:23:39.932Z,1009.10980745
2019-01-09T00:23:52.301Z,1009.10980745
2019-01-09T00:24:04.650Z,1009.10980745
2019-01-09T00:24:17.016Z,1009.10980745
2019-01-09T00:24:29.364Z,1009.10980745
2019-01-09T00:24:41.729Z,1009.10980745
2019-01-09T00:24:54.098Z,1009.10980745
2019-01-09T00:25:06.467Z,1009.10980745
2019-01-09T00:25:18.926Z,1009.10980745
2019-01-09T00:25:31.307Z,1009.10980745
2019-01-09T00:25:43.675Z,1009.10980745
2019-01-09T00:25:56.027Z,1009.10980745
2019-01-09T00:26:08.408Z,1009.14367133
2019-01-09T00:26:20.872Z,1009.14367133
2019-01-09T00:26:33.340Z,1009.14367133
2019-01-09T00:26:45.724Z,1009.14367133
2019-01-09T00:27:00.282Z,1009.14367133
2019-01-09T00:27:12.653Z,1009.17753521
2019-01-09T00:27:25.334Z,1009.17753521
2019-01-09T00:27:37.693Z,1009.17753521
2019-01-09T00:27:50.047Z,1009.17753521
2019-01-09T00:28:02.435Z,1009.17753521
2019-01-09T00:28:14.828Z,1009.17753521
2019-01-09T00:28:27.178Z,1009.17753521
2019-01-09T00:28:39.595Z,1009.17753521
2019-01-09T00:28:51.964Z,1009.17753521
2019-01-09T00:29:04.310Z,1009.14367133
2019-01-09T00:29:16.652Z,1009.14367133
2019-01-09T00:29:29.029Z,1009.14367133
2019-01-09T00:29:41.376Z,1009.14367133
2019-01-09T00:29:53.758Z,1009.14367133
2019-01-09T00:30:06.131Z,1009.24526297
2019-01-09T00:30:18.561Z,1009.24526297
2019-01-09T00:30:30.917Z,1009.24526297
2019-01-09T00:30:43.282Z,1009.24526297
2019-01-09T00:30:55.626Z,1009.24526297
2019-01-09T00:31:08.048Z,1009.17753521
2019-01-09T00:31:20.387Z,1009.17753521
2019-01-09T00:31:32.734Z,1009.17753521
2019-01-09T00:31:45.090Z,1009.17753521
2019-01-09T00:31:57.453Z,1009.17753521
2019-01-09T00:32:09.822Z,1009.24526297
2019-01-09T00:32:22.289Z,1009.24526297
2019-01-09T00:32:34.654Z,1009.24526297
2019-01-09T00:32:47.246Z,1009.24526297
2019-01-09T00:32:59.609Z,1009.24526297
2019-01-09T00:33:11.971Z,1009.17753521
2019-01-09T00:33:24.347Z,1009.17753521
2019-01-09T00:33:36.712Z,1009.17753521
2019-01-09T00:33:49.075Z,1009.17753521
2019-01-09T00:34:01.421Z,1009.24526297
2019-01-09T00:34:13.799Z,1009.24526297
2019-01-09T00:34:26.151Z,1009.24526297
2019-01-09T00:34:38.507Z,1009.24526297
2019-01-09T00:34:50.859Z,1009.24526297
2019-01-09T00:35:03.216Z,1009.17753521
2019-01-09T00:35:15.658Z,1009.17753521
2019-01-09T00:35:28.002Z,1009.17753521
2019-01-09T00:35:48.422Z,1009.17753521
2019-01-09T00:36:00.774Z,1009.17753521
2019-01-09T00:36:13.143Z,1009.24526297
2019-01-09T00:36:25.597Z,1009.24526297
2019-01-09T00:36:38.371Z,1009.24526297
2019-01-09T00:36:50.741Z,1009.24526297
2019-01-09T00:37:03.082Z,1009.21139909
2019-01-09T00:37:15.438Z,1009.21139909
2019-01-09T00:37:28.030Z,1009.21139909
2019-01-09T00:37:40.463Z,1009.21139909
2019-01-09T00:37:52.822Z,1009.21139909
2019-01-09T00:38:05.178Z,1009.17753521
2019-01-09T00:38:17.522Z,1009.17753521
2019-01-09T00:38:29.884Z,1009.17753521
2019-01-09T00:38:44.191Z,1009.17753521
2019-01-09T00:38:56.559Z,1009.17753521
2019-01-09T00:39:08.920Z,1009.21139909
2019-01-09T00:39:21.270Z,1009.21139909
2019-01-09T00:39:33.633Z,1009.21139909
2019-01-09T00:39:46.056Z,1009.21139909
2019-01-09T00:39:58.403Z,1009.21139909
2019-01-09T00:40:10.750Z,1009.17753521
2019-01-09T00:40:23.576Z,1009.17753521
2019-01-09T00:40:35.946Z,1009.17753521
2019-01-09T00:40:48.443Z,1009.17753521
2019-01-09T00:41:00.808Z,1009.17753521
2019-01-09T00:41:13.256Z,1009.24526297
2019-01-09T00:41:25.742Z,1009.24526297
2019-01-09T00:41:38.242Z,1009.24526297
2019-01-09T00:41:50.595Z,1009.24526297
2019-01-09T00:42:02.932Z,1009.17753521
2019-01-09T00:42:15.289Z,1009.17753521
2019-01-09T00:42:27.637Z,1009.17753521
2019-01-09T00:42:39.997Z,1009.17753521
2019-01-09T00:42:52.375Z,1009.17753521
2019-01-09T00:43:04.738Z,1009.17753521
2019-01-09T00:43:17.093Z,1009.17753521
2019-01-09T00:43:29.450Z,1009.17753521
2019-01-09T00:43:41.881Z,1009.17753521
2019-01-09T00:43:54.261Z,1009.17753521
2019-01-09T00:44:06.631Z,1009.17753521
2019-01-09T00:44:19.079Z,1009.17753521
2019-01-09T00:44:31.644Z,1009.17753521
2019-01-09T00:44:44.106Z,1009.17753521
2019-01-09T00:44:56.550Z,1009.17753521
2019-01-09T00:45:08.905Z,1009.17753521
2019-01-09T00:45:21.285Z,1009.17753521
2019-01-09T00:45:33.729Z,1009.17753521
2019-01-09T00:45:46.158Z,1009.17753521
2019-01-09T00:45:58.561Z,1009.17753521
2019-01-09T00:46:10.944Z,1009.27912685
2019-01-09T00:46:23.315Z,1009.27912685
2019-01-09T00:46:36.006Z,1009.27912685
2019-01-09T00:46:48.350Z,1009.27912685
2019-01-09T00:47:00.701Z,1009.27912685
2019-01-09T00:47:13.137Z,1009.24526297
2019-01-09T00:47:25.625Z,1009.24526297
2019-01-09T00:47:38.190Z,1009.24526297
2019-01-09T00:47:50.709Z,1009.24526297
2019-01-09T00:48:03.067Z,1009.17753521
2019-01-09T00:48:15.432Z,1009.17753521
2019-01-09T00:48:27.861Z,1009.17753521
2019-01-09T00:48:40.215Z,1009.17753521
2019-01-09T00:48:52.592Z,1009.17753521
2019-01-09T00:49:04.941Z,1009.21139909
2019-01-09T00:49:17.345Z,1009.21139909
2019-01-09T00:49:29.710Z,1009.21139909
2019-01-09T00:49:42.061Z,1009.21139909
2019-01-09T00:49:54.426Z,1009.21139909
2019-01-09T00:50:06.824Z,1009.27912685
2019-01-09T00:50:19.392Z,1009.27912685
2019-01-09T00:50:31.759Z,1009.27912685
2019-01-09T00:50:44.114Z,1009.27912685
2019-01-09T00:51:01.514Z,1009.27912685
2019-01-09T00:51:13.875Z,1009.27912685
2019-01-09T00:51:26.279Z,1009.27912685
2019-01-09T00:51:38.656Z,1009.27912685
2019-01-09T00:51:50.998Z,1009.27912685
2019-01-09T00:52:03.341Z,1009.21139909
2019-01-09T00:52:15.678Z,1009.21139909
2019-01-09T00:52:28.030Z,1009.21139909
2019-01-09T00:52:40.381Z,1009.21139909
2019-01-09T00:52:53.003Z,1009.21139909
2019-01-09T00:53:05.515Z,1009.27912685
2019-01-09T00:53:17.872Z,1009.27912685
2019-01-09T00:53:30.252Z,1009.27912685
2019-01-09T00:53:42.610Z,1009.27912685
2019-01-09T00:53:54.957Z,1009.27912685
2019-01-09T00:54:07.312Z,1009.24526297
2019-01-09T00:54:19.666Z,1009.24526297
2019-01-09T00:54:32.030Z,1009.24526297
2019-01-09T00:54:44.387Z,1009.24526297
2019-01-09T00:54:56.747Z,1009.24526297
2019-01-09T00:55:09.199Z,1009.27912685
2019-01-09T00:55:21.534Z,1009.27912685
2019-01-09T00:55:33.902Z,1009.27912685
2019-01-09T00:55:46.362Z,1009.27912685
2019-01-09T00:55:58.709Z,1009.27912685
2019-01-09T00:56:11.078Z,1009.31299074
2019-01-09T00:56:23.452Z,1009.31299074
2019-01-09T00:56:35.845Z,1009.31299074
2019-01-09T00:56:48.193Z,1009.31299074
2019-01-09T00:57:00.534Z,1009.31299074
2019-01-09T00:57:12.891Z,1009.27912685
2019-01-09T00:57:25.378Z,1009.27912685
2019-01-09T00:57:37.826Z,1009.27912685
2019-01-09T00:57:50.171Z,1009.27912685
2019-01-09T00:58:02.548Z,1009.27912685
2019-01-09T00:58:14.955Z,1009.27912685
2019-01-09T00:58:27.319Z,1009.27912685
2019-01-09T00:58:39.672Z,1009.27912685
2019-01-09T00:58:52.030Z,1009.27912685
2019-01-09T00:59:04.390Z,1009.41458238
2019-01-09T00:59:16.739Z,1009.41458238
2019-01-09T00:59:29.719Z,1009.41458238
2019-01-09T00:59:42.057Z,1009.41458238
2019-01-09T00:59:54.419Z,1009.41458238
2019-01-09T01:00:06.898Z,1009.34685462
2019-01-09T01:00:19.283Z,1009.34685462
2019-01-09T01:00:31.676Z,1009.34685462
2019-01-09T01:00:44.041Z,1009.34685462
2019-01-09T01:00:56.392Z,1009.34685462
2019-01-09T01:01:08.789Z,1009.34685462
2019-01-09T01:01:21.149Z,1009.34685462
2019-01-09T01:01:33.641Z,1009.34685462
2019-01-09T01:01:45.989Z,1009.34685462
2019-01-09T01:01:58.361Z,1009.34685462
2019-01-09T01:02:10.712Z,1009.27912685
2019-01-09T01:02:23.067Z,1009.27912685
2019-01-09T01:02:35.408Z,1009.27912685
2019-01-09T01:02:47.766Z,1009.27912685
2019-01-09T01:03:00.125Z,1009.27912685
2019-01-09T01:03:12.554Z,1009.41458238
2019-01-09T01:03:24.910Z,1009.41458238
2019-01-09T01:03:37.243Z,1009.41458238
2019-01-09T01:03:51.830Z,1009.41458238
2019-01-09T01:04:04.199Z,1009.34685462
2019-01-09T01:04:16.676Z,1009.34685462
2019-01-09T01:04:29.028Z,1009.34685462
2019-01-09T01:04:41.492Z,1009.34685462
2019-01-09T01:04:53.994Z,1009.34685462
2019-01-09T01:05:06.340Z,1009.3807185
2019-01-09T01:05:18.866Z,1009.3807185
2019-01-09T01:05:31.219Z,1009.3807185
2019-01-09T01:05:51.585Z,1009.3807185
2019-01-09T01:06:03.947Z,1009.34685462
2019-01-09T01:06:16.381Z,1009.34685462
2019-01-09T01:06:28.741Z,1009.34685462
2019-01-09T01:06:41.109Z,1009.34685462
2019-01-09T01:06:53.459Z,1009.34685462
2019-01-09T01:07:05.818Z,1009.3807185
2019-01-09T01:07:18.254Z,1009.3807185
2019-01-09T01:07:30.617Z,1009.3807185
2019-01-09T01:07:43.065Z,1009.3807185
2019-01-09T01:07:55.436Z,1009.3807185
2019-01-09T01:08:07.804Z,1009.41458238
2019-01-09T01:08:20.152Z,1009.41458238
2019-01-09T01:08:32.503Z,1009.41458238
2019-01-09T01:08:44.855Z,1009.41458238
2019-01-09T01:08:57.226Z,1009.41458238
2019-01-09T01:09:09.914Z,1009.41458238
2019-01-09T01:09:22.272Z,1009.41458238
2019-01-09T01:09:34.646Z,1009.41458238
2019-01-09T01:09:47.002Z,1009.41458238
2019-01-09T01:09:59.343Z,1009.41458238
2019-01-09T01:10:11.820Z,1009.44844626
2019-01-09T01:10:24.170Z,1009.44844626
2019-01-09T01:10:36.801Z,1009.44844626
2019-01-09T01:10:49.158Z,1009.44844626
2019-01-09T01:11:01.634Z,1009.3807185
2019-01-09T01:11:13.986Z,1009.3807185
2019-01-09T01:11:26.325Z,1009.3807185
2019-01-09T01:11:38.666Z,1009.3807185
2019-01-09T01:11:51.017Z,1009.3807185
2019-01-09T01:12:03.351Z,1009.44844626
2019-01-09T01:12:15.705Z,1009.44844626
2019-01-09T01:12:28.083Z,1009.44844626
2019-01-09T01:12:40.527Z,1009.44844626
2019-01-09T01:12:52.962Z,1009.44844626
2019-01-09T01:13:05.404Z,1009.48231014
2019-01-09T01:13:17.860Z,1009.48231014
2019-01-09T01:13:30.311Z,1009.48231014
2019-01-09T01:13:42.677Z,1009.48231014
2019-01-09T01:13:55.027Z,1009.48231014
2019-01-09T01:14:07.411Z,1009.61776567
2019-01-09T01:14:19.769Z,1009.61776567
2019-01-09T01:14:32.205Z,1009.61776567
2019-01-09T01:14:44.629Z,1009.61776567
2019-01-09T01:14:56.977Z,1009.61776567
2019-01-09T01:15:09.324Z,1009.48231014
2019-01-09T01:15:21.662Z,1009.48231014
2019-01-09T01:15:34.003Z,1009.48231014
2019-01-09T01:15:46.358Z,1009.48231014
2019-01-09T01:15:58.703Z,1009.48231014
2019-01-09T01:16:11.055Z,1009.44844626
2019-01-09T01:16:23.476Z,1009.44844626
2019-01-09T01:16:35.844Z,1009.44844626
2019-01-09T01:16:48.199Z,1009.44844626
2019-01-09T01:17:00.593Z,1009.44844626
2019-01-09T01:17:12.950Z,1009.51617402
2019-01-09T01:17:25.290Z,1009.51617402
2019-01-09T01:17:37.629Z,1009.51617402
2019-01-09T01:17:49.984Z,1009.51617402
2019-01-09T01:18:02.341Z,1009.55003791
2019-01-09T01:18:14.694Z,1009.55003791
2019-01-09T01:18:27.094Z,1009.55003791
2019-01-09T01:18:39.585Z,1009.55003791
2019-01-09T01:18:51.955Z,1009.55003791
2019-01-09T01:19:04.322Z,1009.55003791
2019-01-09T01:19:16.683Z,1009.55003791
2019-01-09T01:19:29.045Z,1009.55003791
2019-01-09T01:19:41.409Z,1009.55003791
2019-01-09T01:19:53.848Z,1009.55003791
2019-01-09T01:20:06.306Z,1009.44844626
2019-01-09T01:20:18.715Z,1009.44844626
2019-01-09T01:20:31.084Z,1009.44844626
2019-01-09T01:20:43.587Z,1009.44844626
2019-01-09T01:20:56.048Z,1009.44844626
2019-01-09T01:21:08.391Z,1009.48231014
2019-01-09T01:21:20.763Z,1009.48231014
2019-01-09T01:21:33.153Z,1009.48231014
2019-01-09T01:21:45.493Z,1009.48231014
2019-01-09T01:21:57.845Z,1009.48231014
2019-01-09T01:22:10.200Z,1009.55003791
2019-01-09T01:22:22.633Z,1009.55003791
2019-01-09T01:22:34.986Z,1009.55003791
2019-01-09T01:22:47.341Z,1009.55003791
2019-01-09T01:22:59.697Z,1009.55003791
2019-01-09T01:23:12.283Z,1009.48231014
2019-01-09T01:23:24.628Z,1009.48231014
2019-01-09T01:23:37.051Z,1009.48231014
2019-01-09T01:23:49.401Z,1009.48231014
2019-01-09T01:24:01.764Z,1009.55003791
2019-01-09T01:24:14.119Z,1009.55003791
2019-01-09T01:24:26.475Z,1009.55003791
2019-01-09T01:24:38.927Z,1009.55003791
2019-01-09T01:24:51.273Z,1009.55003791
2019-01-09T01:25:03.762Z,1009.58390179
2019-01-09T01:25:16.127Z,1009.58390179
2019-01-09T01:25:28.555Z,1009.58390179
2019-01-09T01:25:40.915Z,1009.58390179
2019-01-09T01:25:53.282Z,1009.58390179
2019-01-09T01:26:05.644Z,1009.58390179
2019-01-09T01:26:18.075Z,1009.58390179
2019-01-09T01:26:30.431Z,1009.58390179
2019-01-09T01:26:42.819Z,1009.58390179
2019-01-09T01:26:55.176Z,1009.58390179
2019-01-09T01:27:07.542Z,1009.65162955
2019-01-09T01:27:19.886Z,1009.65162955
2019-01-09T01:27:32.394Z,1009.65162955
2019-01-09T01:27:44.757Z,1009.65162955
2019-01-09T01:27:57.129Z,1009.65162955
2019-01-09T01:28:09.514Z,1009.61776567
2019-01-09T01:28:21.888Z,1009.61776567
2019-01-09T01:28:35.470Z,1009.61776567
2019-01-09T01:28:47.821Z,1009.61776567
2019-01-09T01:29:00.242Z,1009.61776567
2019-01-09T01:29:12.600Z,1009.68549343
2019-01-09T01:29:24.969Z,1009.68549343
2019-01-09T01:29:37.323Z,1009.68549343
2019-01-09T01:29:49.683Z,1009.68549343
2019-01-09T01:30:02.039Z,1009.71935731
2019-01-09T01:30:14.388Z,1009.71935731
2019-01-09T01:30:26.739Z,1009.71935731
2019-01-09T01:30:39.084Z,1009.71935731
2019-01-09T01:30:51.428Z,1009.71935731
2019-01-09T01:31:03.864Z,1009.68549343
2019-01-09T01:31:16.303Z,1009.68549343
2019-01-09T01:31:28.653Z,1009.68549343
2019-01-09T01:31:41.063Z,1009.68549343
2019-01-09T01:31:53.431Z,1009.68549343
2019-01-09T01:32:05.791Z,1009.71935731
2019-01-09T01:32:18.138Z,1009.71935731
2019-01-09T01:32:30.644Z,1009.71935731
2019-01-09T01:32:43.005Z,1009.71935731
2019-01-09T01:32:55.653Z,1009.71935731
2019-01-09T01:33:08.004Z,1009.65162955
2019-01-09T01:33:20.356Z,1009.65162955
2019-01-09T01:33:32.783Z,1009.65162955
2019-01-09T01:33:45.154Z,1009.65162955
2019-01-09T01:33:57.512Z,1009.65162955
2019-01-09T01:34:09.855Z,1009.78708508
2019-01-09T01:34:22.242Z,1009.78708508
2019-01-09T01:34:34.683Z,1009.78708508
2019-01-09T01:34:47.042Z,1009.78708508
2019-01-09T01:34:59.406Z,1009.78708508
2019-01-09T01:35:11.768Z,1009.7532212
2019-01-09T01:35:24.152Z,1009.7532212
2019-01-09T01:35:36.514Z,1009.7532212
2019-01-09T01:35:56.890Z,1009.7532212
2019-01-09T01:36:09.263Z,1009.78708508
2019-01-09T01:36:21.606Z,1009.78708508
2019-01-09T01:36:34.104Z,1009.78708508
2019-01-09T01:36:46.464Z,1009.78708508
2019-01-09T01:36:58.826Z,1009.78708508
2019-01-09T01:37:11.207Z,1009.7532212
2019-01-09T01:37:23.697Z,1009.7532212
2019-01-09T01:37:36.045Z,1009.7532212
2019-01-09T01:37:48.394Z,1009.7532212
2019-01-09T01:38:00.830Z,1009.7532212
2019-01-09T01:38:13.199Z,1009.7532212
2019-01-09T01:38:25.574Z,1009.7532212
2019-01-09T01:38:37.929Z,1009.7532212
2019-01-09T01:38:50.283Z,1009.7532212
2019-01-09T01:39:02.814Z,1009.78708508
2019-01-09T01:39:15.170Z,1009.78708508
2019-01-09T01:39:27.599Z,1009.78708508
2019-01-09T01:39:39.948Z,1009.78708508
2019-01-09T01:39:52.313Z,1009.78708508
2019-01-09T01:40:04.681Z,1009.78708508
2019-01-09T01:40:17.180Z,1009.78708508
2019-01-09T01:40:29.593Z,1009.78708508
2019-01-09T01:40:42.093Z,1009.78708508
2019-01-09T01:40:54.444Z,1009.78708508
2019-01-09T01:41:06.882Z,1009.82094896
2019-01-09T01:41:19.501Z,1009.82094896
2019-01-09T01:41:31.862Z,1009.82094896
2019-01-09T01:41:44.286Z,1009.82094896
2019-01-09T01:41:56.775Z,1009.82094896
2019-01-09T01:42:09.133Z,1009.78708508
2019-01-09T01:42:21.498Z,1009.78708508
2019-01-09T01:42:35.518Z,1009.78708508
2019-01-09T01:42:48.040Z,1009.78708508
2019-01-09T01:43:00.432Z,1009.78708508
2019-01-09T01:43:12.816Z,1009.71935731
2019-01-09T01:43:25.165Z,1009.71935731
2019-01-09T01:43:37.512Z,1009.71935731
2019-01-09T01:43:49.867Z,1009.71935731
2019-01-09T01:44:02.219Z,1009.88867672
2019-01-09T01:44:14.707Z,1009.88867672
2019-01-09T01:44:27.182Z,1009.88867672
2019-01-09T01:44:39.533Z,1009.88867672
2019-01-09T01:44:51.925Z,1009.88867672
2019-01-09T01:45:04.289Z,1009.82094896
2019-01-09T01:45:16.728Z,1009.82094896
2019-01-09T01:45:29.080Z,1009.82094896
2019-01-09T01:45:41.515Z,1009.82094896
2019-01-09T01:45:53.953Z,1009.82094896
2019-01-09T01:46:06.301Z,1009.82094896
2019-01-09T01:46:18.665Z,1009.82094896
2019-01-09T01:46:31.019Z,1009.82094896
2019-01-09T01:46:43.377Z,1009.82094896
2019-01-09T01:46:55.734Z,1009.82094896
2019-01-09T01:47:08.090Z,1009.85481284
2019-01-09T01:47:20.629Z,1009.85481284
2019-01-09T01:47:32.974Z,1009.85481284
2019-01-09T01:47:45.487Z,1009.85481284
2019-01-09T01:47:57.824Z,1009.85481284
2019-01-09T01:48:10.185Z,1009.88867672
2019-01-09T01:48:22.562Z,1009.88867672
2019-01-09T01:48:34.911Z,1009.88867672
2019-01-09T01:48:47.273Z,1009.88867672
2019-01-09T01:48:59.633Z,1009.88867672
2019-01-09T01:49:12.017Z,1009.85481284
2019-01-09T01:49:24.412Z,1009.85481284
2019-01-09T01:49:36.827Z,1009.85481284
2019-01-09T01:49:49.177Z,1009.85481284
2019-01-09T01:50:01.646Z,1009.88867672
2019-01-09T01:50:14.269Z,1009.88867672
2019-01-09T01:50:26.619Z,1009.88867672
2019-01-09T01:50:39.062Z,1009.88867672
2019-01-09T01:50:51.413Z,1009.88867672
2019-01-09T01:51:03.778Z,1009.9225406
2019-01-09T01:51:16.139Z,1009.9225406
2019-01-09T01:51:28.504Z,1009.9225406
2019-01-09T01:51:41.406Z,1009.9225406
2019-01-09T01:51:53.756Z,1009.9225406
2019-01-09T01:52:06.306Z,1009.9225406
2019-01-09T01:52:18.670Z,1009.9225406
2019-01-09T01:52:31.063Z,1009.9225406
2019-01-09T01:52:43.484Z,1009.9225406
2019-01-09T01:52:55.817Z,1009.9225406
2019-01-09T01:53:08.525Z,1009.9225406
2019-01-09T01:53:20.893Z,1009.9225406
2019-01-09T01:53:33.241Z,1009.9225406
2019-01-09T01:53:45.606Z,1009.9225406
2019-01-09T01:53:58.062Z,1009.9225406
2019-01-09T01:54:10.446Z,1009.85481284
2019-01-09T01:54:22.797Z,1009.85481284
2019-01-09T01:54:35.163Z,1009.85481284
2019-01-09T01:54:47.542Z,1009.85481284
2019-01-09T01:54:59.906Z,1009.85481284
2019-01-09T01:55:12.276Z,1009.99026837
2019-01-09T01:55:24.622Z,1009.99026837
2019-01-09T01:55:37.046Z,1009.99026837
2019-01-09T01:55:49.568Z,1009.99026837
2019-01-09T01:56:01.909Z,1009.99026837
2019-01-09T01:56:14.341Z,1009.99026837
2019-01-09T01:56:26.693Z,1009.99026837
2019-01-09T01:56:39.042Z,1009.99026837
2019-01-09T01:56:51.399Z,1009.99026837
2019-01-09T01:57:03.754Z,1009.9225406
2019-01-09T01:57:16.133Z,1009.9225406
2019-01-09T01:57:28.677Z,1009.9225406
2019-01-09T01:57:41.032Z,1009.9225406
2019-01-09T01:57:53.395Z,1009.9225406
2019-01-09T01:58:05.851Z,1009.99026837
2019-01-09T01:58:18.215Z,1009.99026837
2019-01-09T01:58:30.555Z,1009.99026837
2019-01-09T01:58:42.906Z,1009.99026837
2019-01-09T01:58:55.280Z,1009.99026837
2019-01-09T01:59:07.659Z,1009.99026837
2019-01-09T01:59:20.020Z,1009.99026837
2019-01-09T01:59:32.377Z,1009.99026837
2019-01-09T01:59:44.728Z,1009.99026837
2019-01-09T01:59:57.074Z,1009.99026837
2019-01-09T02:00:09.446Z,1010.02413225
2019-01-09T02:00:21.814Z,1010.02413225
2019-01-09T02:00:34.198Z,1010.02413225
2019-01-09T02:00:46.562Z,1010.02413225
2019-01-09T02:00:58.951Z,1010.02413225
2019-01-09T02:01:11.306Z,1009.9225406
2019-01-09T02:01:23.664Z,1009.9225406
2019-01-09T02:01:36.011Z,1009.9225406
2019-01-09T02:01:48.375Z,1009.9225406
2019-01-09T02:02:00.856Z,1009.9225406
2019-01-09T02:02:13.213Z,1010.02413225
2019-01-09T02:02:27.001Z,1010.02413225
2019-01-09T02:02:39.370Z,1010.02413225
2019-01-09T02:02:51.739Z,1010.02413225
2019-01-09T02:03:04.354Z,1009.99026837
2019-01-09T02:03:16.701Z,1009.99026837
2019-01-09T02:03:29.062Z,1009.99026837
2019-01-09T02:03:41.442Z,1009.99026837
2019-01-09T02:03:53.902Z,1009.99026837
2019-01-09T02:04:06.255Z,1009.99026837
2019-01-09T02:04:18.631Z,1009.99026837
2019-01-09T02:04:30.986Z,1009.99026837
2019-01-09T02:04:43.357Z,1009.99026837
2019-01-09T02:04:55.823Z,1009.99026837
2019-01-09T02:05:08.202Z,1010.02413225
2019-01-09T02:05:20.692Z,1010.02413225
2019-01-09T02:05:33.060Z,1010.02413225
2019-01-09T02:05:45.451Z,1010.02413225
2019-01-09T02:06:06.999Z,1009.99026837
2019-01-09T02:06:19.359Z,1009.99026837
2019-01-09T02:06:31.715Z,1009.99026837
2019-01-09T02:06:44.168Z,1009.99026837
2019-01-09T02:06:56.508Z,1009.99026837
2019-01-09T02:07:08.869Z,1010.09186001
2019-01-09T02:07:21.233Z,1010.09186001
2019-01-09T02:07:33.572Z,1010.09186001
2019-01-09T02:07:45.929Z,1010.09186001
2019-01-09T02:07:58.284Z,1010.09186001
2019-01-09T02:08:10.646Z,1010.05799613